Time;durP1;ratioP1;P1;durP2;ratioP2;P2;SDS_P1;SDS_P2;PMS_P1;PMS_P2;Temp;Humidity;BMP_temperature;BMP_pressure;BME280_temperature;BME280_humidity;BME280_pressure;Samples;Min_cycle;Max_cycle;Signal;HPM_P1;HPM_P2
2020/12/19 15:47:53;;;;;;;25.00;14.63;;;3.60;99.90;;;;;;5108207;27;20268;-67
2020/12/19 15:50:19;;;;;;;31.20;18.17;;;3.60;99.90;;;;;;5108008;28;20682;-67
2020/12/19 15:52:44;;;;;;;29.93;20.17;;;3.60;99.90;;;;;;5091057;28;20183;-67
2020/12/19 15:55:10;;;;;;;30.20;18.00;;;3.60;99.90;;;;;;5087524;28;20199;-67
2020/12/19 15:57:35;;;;;;;25.80;15.33;;;3.60;99.90;;;;;;5090936;28;20190;-67
2020/12/19 16:00:01;;;;;;;31.90;18.43;;;3.60;99.90;;;;;;5126981;22;20188;-75
2020/12/19 16:02:26;;;;;;;30.30;17.40;;;3.60;99.90;;;;;;5064030;28;20269;-74
2020/12/19 16:04:52;;;;;;;29.33;18.73;;;3.60;99.90;;;;;;5066445;28;20169;-74
2020/12/19 16:07:17;;;;;;;19.50;12.07;;;3.60;99.90;;;;;;5067091;28;20276;-73
2020/12/19 16:09:43;;;;;;;31.57;20.27;;;3.60;99.90;;;;;;5068800;28;20169;-74
2020/12/19 16:12:08;;;;;;;28.77;18.00;;;3.60;99.90;;;;;;5048187;28;20166;-74
2020/12/19 16:14:35;;;;;;;35.40;22.03;;;3.60;99.90;;;;;;5045208;28;20197;-62
2020/12/19 16:17:00;;;;;;;22.70;14.33;;;3.60;99.90;;;;;;5046084;28;20189;-63
2020/12/19 16:19:26;;;;;;;28.57;16.27;;;3.60;99.90;;;;;;5040492;28;20174;-62
2020/12/19 16:21:51;;;;;;;35.00;21.33;;;3.60;99.90;;;;;;5044560;28;20276;-61
2020/12/19 16:24:17;;;;;;;21.10;13.03;;;3.60;99.90;;;;;;5047050;28;20188;-62
2020/12/19 16:26:46;;;;;;;32.07;18.73;;;3.60;99.90;;;;;;5047306;28;20212;-62
2020/12/19 16:29:12;;;;;;;31.67;18.00;;;3.50;99.90;;;;;;5046101;28;20728;-61
2020/12/19 16:31:40;;;;;;;25.57;15.60;;;3.60;99.90;;;;;;5046344;28;20202;-61
2020/12/19 16:34:06;;;;;;;26.80;16.53;;;3.50;99.90;;;;;;5043254;28;20186;-61
2020/12/19 16:36:31;;;;;;;27.47;17.87;;;3.50;99.90;;;;;;5033574;28;20698;-61
2020/12/19 16:38:58;;;;;;;25.53;18.03;;;3.60;99.90;;;;;;5046673;28;20200;-62
2020/12/19 16:41:23;;;;;;;25.53;17.27;;;3.60;99.90;;;;;;5033445;28;20512;-62
2020/12/19 16:43:53;;;;;;;22.83;14.87;;;3.60;99.90;;;;;;5046844;28;20177;-63
2020/12/19 16:46:23;;;;;;;33.00;20.37;;;3.60;99.90;;;;;;5047156;28;20240;-62
2020/12/19 16:48:49;;;;;;;22.53;14.07;;;3.50;99.90;;;;;;5046127;28;20212;-62
2020/12/19 16:51:14;;;;;;;32.83;20.67;;;3.50;99.90;;;;;;5043771;28;20221;-61
2020/12/19 16:53:39;;;;;;;21.50;13.60;;;3.50;99.90;;;;;;5040451;28;20186;-61
2020/12/19 16:56:05;;;;;;;23.30;14.47;;;3.50;99.90;;;;;;5027713;28;20285;-62
2020/12/19 16:58:30;;;;;;;24.27;17.37;;;3.50;99.90;;;;;;5037051;28;20182;-62
2020/12/19 17:00:56;;;;;;;22.97;16.73;;;3.50;99.90;;;;;;5032320;28;20222;-62
2020/12/19 17:03:21;;;;;;;27.50;17.30;;;3.50;99.90;;;;;;5024906;28;20171;-62
2020/12/19 17:05:47;;;;;;;27.33;17.67;;;3.40;99.90;;;;;;5032951;28;20233;-62
2020/12/19 17:08:12;;;;;;;27.10;17.53;;;3.40;99.90;;;;;;5032997;28;20158;-62
2020/12/19 17:10:38;;;;;;;24.20;16.57;;;3.50;99.90;;;;;;5032134;28;20221;-61
2020/12/19 17:13:04;;;;;;;14.17;9.07;;;3.50;99.90;;;;;;5032552;28;20186;-63
2020/12/19 17:15:29;;;;;;;28.20;16.83;;;3.40;99.90;;;;;;5027175;28;20324;-63
2020/12/19 17:17:55;;;;;;;28.43;18.10;;;3.40;99.90;;;;;;5024282;28;20179;-62
2020/12/19 17:20:20;;;;;;;26.87;15.83;;;3.40;99.90;;;;;;5017507;28;20292;-62
2020/12/19 17:22:46;;;;;;;25.97;16.33;;;3.40;99.90;;;;;;5030439;28;20185;-60
2020/12/19 17:25:11;;;;;;;24.30;15.73;;;3.40;99.90;;;;;;5031153;28;20206;-60
2020/12/19 17:27:38;;;;;;;27.17;17.10;;;3.40;99.90;;;;;;5030942;28;20214;-61
2020/12/19 17:30:04;;;;;;;28.80;18.53;;;3.40;99.90;;;;;;5025904;28;20199;-61
2020/12/19 17:32:29;;;;;;;26.87;15.33;;;3.40;99.90;;;;;;5020988;28;20811;-61
2020/12/19 17:34:55;;;;;;;26.83;17.70;;;3.40;99.90;;;;;;5013283;28;20687;-61
2020/12/19 17:37:20;;;;;;;21.57;13.70;;;3.40;99.90;;;;;;5030078;28;20328;-77
2020/12/19 17:39:46;;;;;;;25.07;15.13;;;3.30;99.90;;;;;;5032023;28;20174;-74
2020/12/19 17:42:11;;;;;;;18.57;12.47;;;3.30;99.90;;;;;;5032759;28;20190;-77
2020/12/19 17:44:37;;;;;;;24.27;16.57;;;3.30;99.90;;;;;;5033041;28;20681;-76
2020/12/19 17:47:02;;;;;;;25.20;16.47;;;3.30;99.90;;;;;;5032800;28;20560;-77
2020/12/19 17:49:28;;;;;;;25.87;17.27;;;3.40;99.90;;;;;;5032368;28;20662;-76
2020/12/19 17:51:54;;;;;;;27.00;14.27;;;3.30;99.90;;;;;;5031128;28;20694;-75
2020/12/19 17:54:22;;;;;;;27.83;17.47;;;3.40;99.90;;;;;;5032232;28;20201;-76
2020/12/19 17:56:57;;;;;;;24.80;16.03;;;3.40;99.90;;;;;;5034379;28;20189;-76
2020/12/19 17:59:23;;;;;;;23.30;16.10;;;3.30;99.90;;;;;;5036227;28;20670;-77
2020/12/19 18:01:53;;;;;;;24.07;14.03;;;3.30;99.90;;;;;;5035110;28;20232;-77
2020/12/19 18:04:19;;;;;;;24.37;15.30;;;3.40;99.90;;;;;;5027296;28;20666;-75
2020/12/19 18:06:45;;;;;;;24.23;15.17;;;3.30;99.90;;;;;;5031565;28;20305;-76
2020/12/19 18:09:10;;;;;;;26.27;16.40;;;3.30;99.90;;;;;;5027596;28;20225;-76
2020/12/19 18:11:36;;;;;;;26.57;17.33;;;3.30;99.90;;;;;;5023500;28;20205;-76
2020/12/19 18:14:01;;;;;;;24.47;15.53;;;3.30;99.90;;;;;;5030224;28;20685;-76
2020/12/19 18:16:27;;;;;;;23.87;14.50;;;3.30;99.90;;;;;;5031993;28;20179;-78
2020/12/19 18:18:53;;;;;;;22.43;14.27;;;3.30;99.90;;;;;;5026944;28;20186;-60
2020/12/19 18:21:19;;;;;;;24.43;13.87;;;3.30;99.90;;;;;;5026392;28;20198;-59
2020/12/19 18:23:44;;;;;;;22.87;14.17;;;3.30;99.90;;;;;;5020079;28;20194;-61
2020/12/19 18:26:10;;;;;;;27.73;18.83;;;3.30;99.90;;;;;;5021001;28;20249;-60
2020/12/19 18:28:35;;;;;;;24.07;13.63;;;3.30;99.90;;;;;;5022327;28;20187;-60
2020/12/19 18:31:01;;;;;;;21.00;13.53;;;3.30;99.90;;;;;;5021502;28;20742;-59
2020/12/19 18:33:26;;;;;;;23.33;14.93;;;3.30;99.90;;;;;;5021967;28;20556;-59
2020/12/19 18:35:52;;;;;;;22.20;15.13;;;3.30;99.90;;;;;;5021907;28;20251;-60
2020/12/19 18:38:17;;;;;;;20.53;12.77;;;3.30;99.90;;;;;;5029954;28;20182;-59
2020/12/19 18:40:43;;;;;;;16.33;10.87;;;3.30;99.90;;;;;;5020951;28;20202;-60
2020/12/19 18:43:08;;;;;;;19.97;12.97;;;3.30;99.90;;;;;;5025883;28;20178;-57
2020/12/19 18:45:34;;;;;;;25.60;16.70;;;3.30;99.90;;;;;;5028317;28;20265;-58
2020/12/19 18:47:59;;;;;;;23.37;12.90;;;3.30;99.90;;;;;;5029795;28;20182;-59
2020/12/19 18:50:25;;;;;;;20.80;14.30;;;3.30;99.90;;;;;;5029934;28;20256;-59
2020/12/19 18:52:50;;;;;;;21.60;15.23;;;3.30;99.90;;;;;;5031147;28;20189;-60
2020/12/19 18:55:16;;;;;;;21.70;14.20;;;3.30;99.90;;;;;;5029267;28;20178;-61
2020/12/19 18:57:41;;;;;;;25.67;15.53;;;3.30;99.90;;;;;;5030003;28;20182;-60
2020/12/19 19:00:07;;;;;;;23.60;14.23;;;3.30;99.90;;;;;;5026504;28;20222;-59
2020/12/19 19:02:33;;;;;;;21.73;14.40;;;3.30;99.90;;;;;;5027025;28;20213;-59
2020/12/19 19:04:59;;;;;;;20.33;15.00;;;3.30;99.90;;;;;;5024628;28;20183;-60
2020/12/19 19:07:25;;;;;;;24.77;15.27;;;3.20;99.90;;;;;;5024943;28;20574;-60
2020/12/19 19:09:51;;;;;;;23.83;15.67;;;3.20;99.90;;;;;;5024775;28;20185;-60
2020/12/19 19:12:18;;;;;;;21.03;14.50;;;3.30;99.90;;;;;;5029983;28;20249;-60
2020/12/19 19:14:43;;;;;;;23.70;14.80;;;3.30;99.90;;;;;;5030966;28;20228;-60
2020/12/19 19:17:09;;;;;;;15.53;9.97;;;3.30;99.90;;;;;;5030631;28;20170;-61
2020/12/19 19:19:36;;;;;;;21.40;14.27;;;3.30;99.90;;;;;;5030837;28;20654;-61
2020/12/19 19:22:02;;;;;;;21.50;13.93;;;3.30;99.90;;;;;;5029881;28;20186;-61
2020/12/19 19:24:29;;;;;;;23.10;15.20;;;3.30;99.90;;;;;;5030572;28;20209;-60
2020/12/19 19:26:56;;;;;;;18.87;12.73;;;3.30;99.90;;;;;;5030745;28;20231;-60
2020/12/19 19:29:23;;;;;;;24.10;14.93;;;3.20;99.90;;;;;;5029451;28;20174;-59
2020/12/19 19:31:50;;;;;;;23.63;15.43;;;3.20;99.90;;;;;;5025797;28;20600;-60
2020/12/19 19:34:15;;;;;;;25.80;16.50;;;3.20;99.90;;;;;;5022000;28;20182;-61
2020/12/19 19:36:46;;;;;;;22.67;16.07;;;3.20;99.90;;;;;;5029070;28;20189;-60
2020/12/19 19:39:12;;;;;;;21.13;14.13;;;3.20;99.90;;;;;;5024231;28;20175;-61
2020/12/19 19:41:38;;;;;;;22.67;14.93;;;3.20;99.90;;;;;;5022168;28;20207;-61
2020/12/19 19:44:04;;;;;;;25.80;16.20;;;3.20;99.90;;;;;;5020935;28;20549;-60
2020/12/19 19:46:30;;;;;;;26.17;16.57;;;3.20;99.90;;;;;;5018609;28;20264;-59
2020/12/19 19:48:56;;;;;;;21.47;14.77;;;3.20;99.90;;;;;;5028176;28;20186;-59
2020/12/19 19:51:21;;;;;;;29.63;19.30;;;3.20;99.90;;;;;;5022134;28;20900;-59
2020/12/19 19:53:47;;;;;;;24.07;16.67;;;3.20;99.90;;;;;;5020745;28;20175;-59
2020/12/19 19:56:13;;;;;;;22.87;15.07;;;3.20;99.90;;;;;;5020454;28;20185;-59
2020/12/19 19:58:38;;;;;;;25.57;15.60;;;3.20;99.90;;;;;;5014470;28;20182;-59
2020/12/19 20:01:05;;;;;;;22.00;12.93;;;3.20;99.90;;;;;;5020589;28;20211;-60
2020/12/19 20:03:31;;;;;;;24.13;16.77;;;3.20;99.90;;;;;;5020705;28;20675;-60
2020/12/19 20:05:56;;;;;;;21.63;14.23;;;3.20;99.90;;;;;;5024369;28;20248;-59
2020/12/19 20:08:22;;;;;;;24.03;14.80;;;3.20;99.90;;;;;;5020142;28;20647;-59
2020/12/19 20:10:47;;;;;;;23.07;15.83;;;3.20;99.90;;;;;;5027286;28;20194;-61
2020/12/19 20:13:13;;;;;;;23.77;17.30;;;3.30;99.90;;;;;;5014816;28;20179;-61
2020/12/19 20:15:38;;;;;;;24.70;15.87;;;3.20;99.90;;;;;;5020145;28;20175;-60
2020/12/19 20:18:04;;;;;;;22.23;15.67;;;3.30;99.90;;;;;;5025468;28;20191;-61
2020/12/19 20:20:29;;;;;;;21.83;14.97;;;3.30;99.90;;;;;;5023213;28;20202;-60
2020/12/19 20:22:55;;;;;;;21.33;15.57;;;3.20;99.90;;;;;;5020190;28;20241;-61
2020/12/19 20:25:21;;;;;;;25.07;15.43;;;3.20;99.90;;;;;;5023263;28;20181;-59
2020/12/19 20:27:46;;;;;;;22.50;15.87;;;3.20;99.90;;;;;;5022798;28;20210;-61
2020/12/19 20:30:12;;;;;;;19.40;13.93;;;3.20;99.90;;;;;;5018813;28;20433;-61
2020/12/19 20:32:38;;;;;;;22.50;14.80;;;3.20;99.90;;;;;;5015813;28;20202;-61
2020/12/19 20:35:07;;;;;;;23.47;16.43;;;3.30;99.90;;;;;;5027649;28;20206;-61
2020/12/19 20:37:33;;;;;;;23.50;15.80;;;3.30;99.90;;;;;;5013676;28;20662;-60
2020/12/19 20:39:59;;;;;;;21.57;15.37;;;3.30;99.90;;;;;;5013580;28;20186;-60
2020/12/19 20:42:24;;;;;;;20.40;14.77;;;3.30;99.90;;;;;;5012862;28;20178;-60
2020/12/19 20:44:49;;;;;;;22.30;15.10;;;3.20;99.90;;;;;;5014033;28;20176;-61
2020/12/19 20:47:15;;;;;;;21.93;15.33;;;3.20;99.90;;;;;;5014092;28;20207;-61
2020/12/19 20:49:41;;;;;;;21.47;14.23;;;3.30;99.90;;;;;;5013743;28;20171;-61
2020/12/19 20:52:07;;;;;;;20.53;14.23;;;3.30;99.90;;;;;;5012729;28;20203;-60
2020/12/19 20:54:32;;;;;;;23.13;15.27;;;3.30;99.90;;;;;;5013189;28;20230;-61
2020/12/19 20:56:58;;;;;;;22.37;14.23;;;3.30;99.90;;;;;;5013472;28;20541;-61
2020/12/19 20:59:23;;;;;;;21.53;15.23;;;3.30;99.90;;;;;;5013234;28;20179;-60
2020/12/19 21:01:48;;;;;;;22.13;15.17;;;3.40;99.90;;;;;;5012611;28;20229;-61
2020/12/19 21:04:15;;;;;;;20.77;14.53;;;3.30;99.90;;;;;;5021831;28;20589;-60
2020/12/19 21:06:40;;;;;;;18.90;13.07;;;3.30;99.90;;;;;;5031622;28;20217;-61
2020/12/19 21:09:06;;;;;;;23.47;14.60;;;3.40;99.90;;;;;;5033816;28;20170;-61
2020/12/19 21:11:31;;;;;;;19.10;14.43;;;3.40;99.90;;;;;;5052752;28;20193;-74
2020/12/19 21:13:57;;;;;;;21.13;15.10;;;3.40;99.90;;;;;;5044884;28;20561;-75
2020/12/19 21:16:23;;;;;;;19.47;13.87;;;3.40;99.90;;;;;;5014984;28;20385;-75
2020/12/19 21:18:48;;;;;;;20.60;13.60;;;3.40;99.90;;;;;;5014975;28;20167;-74
2020/12/19 21:21:15;;;;;;;21.63;14.20;;;3.40;99.90;;;;;;5033079;28;20198;-74
2020/12/19 21:23:41;;;;;;;24.47;14.47;;;3.40;99.90;;;;;;5036390;28;20179;-74
2020/12/19 21:26:07;;;;;;;21.10;14.27;;;3.40;99.90;;;;;;5036978;28;20206;-73
2020/12/19 21:28:32;;;;;;;20.30;14.30;;;3.40;99.90;;;;;;5035620;28;20185;-74
2020/12/19 21:30:58;;;;;;;18.20;14.00;;;3.40;99.90;;;;;;5032531;28;20198;-75
2020/12/19 21:33:23;;;;;;;19.93;14.10;;;3.40;99.90;;;;;;5035125;28;20174;-74
2020/12/19 21:35:49;;;;;;;21.27;13.73;;;3.40;99.90;;;;;;5033621;28;20643;-75
2020/12/19 21:38:15;;;;;;;18.53;12.83;;;3.40;99.90;;;;;;5033299;28;20224;-74
2020/12/19 21:40:40;;;;;;;19.70;13.10;;;3.40;99.90;;;;;;5033248;28;20651;-64
2020/12/19 21:43:06;;;;;;;19.13;13.27;;;3.40;99.90;;;;;;5032796;28;20182;-60
2020/12/19 21:45:32;;;;;;;19.43;12.07;;;3.40;99.90;;;;;;5032287;28;20170;-59
2020/12/19 21:47:58;;;;;;;19.70;12.67;;;3.50;99.90;;;;;;5032455;28;20213;-58
2020/12/19 21:50:24;;;;;;;16.87;11.67;;;3.50;99.90;;;;;;5031404;28;20288;-59
2020/12/19 21:52:52;;;;;;;18.97;13.40;;;3.50;99.90;;;;;;5032087;28;20220;-59
2020/12/19 21:55:18;;;;;;;18.20;12.53;;;3.50;99.90;;;;;;5032510;28;20552;-59
2020/12/19 21:57:45;;;;;;;20.20;12.73;;;3.50;99.90;;;;;;5031272;28;20197;-60
2020/12/19 22:00:16;;;;;;;17.65;11.80;;;3.50;99.90;;;;;;5056173;22;20751;-62
2020/12/19 22:02:43;;;;;;;18.20;12.43;;;3.50;99.90;;;;;;5091195;28;20413;-63
2020/12/19 22:05:10;;;;;;;18.57;13.00;;;3.50;99.90;;;;;;5092592;28;20176;-62
2020/12/19 22:07:37;;;;;;;15.23;11.40;;;3.50;99.90;;;;;;5096924;28;20195;-64
2020/12/19 22:10:04;;;;;;;16.60;12.23;;;3.50;99.90;;;;;;5102694;28;20221;-63
2020/12/19 22:12:30;;;;;;;19.37;12.97;;;3.50;99.90;;;;;;5090874;28;20196;-63
2020/12/19 22:14:55;;;;;;;21.20;13.57;;;3.50;99.90;;;;;;5091033;28;20248;-62
2020/12/19 22:17:20;;;;;;;19.03;13.03;;;3.50;99.90;;;;;;5092132;28;20176;-63
2020/12/19 22:19:46;;;;;;;18.67;12.73;;;3.50;99.90;;;;;;5091986;28;20656;-63
2020/12/19 22:22:11;;;;;;;15.20;12.40;;;3.50;99.90;;;;;;5091031;28;20199;-62
2020/12/19 22:24:37;;;;;;;13.80;9.17;;;3.50;99.90;;;;;;5091448;28;20180;-62
2020/12/19 22:27:02;;;;;;;19.83;12.97;;;3.50;99.90;;;;;;5092419;28;20262;-63
2020/12/19 22:29:28;;;;;;;19.07;13.33;;;3.50;99.90;;;;;;5091718;28;20224;-64
2020/12/19 22:31:54;;;;;;;16.97;12.13;;;3.50;99.90;;;;;;5091134;28;20192;-63
2020/12/19 22:34:19;;;;;;;16.60;12.17;;;3.40;99.90;;;;;;5091654;28;20225;-63
2020/12/19 22:36:49;;;;;;;19.17;12.97;;;3.40;99.90;;;;;;5091433;28;20164;-63
2020/12/19 22:39:15;;;;;;;17.77;12.73;;;3.40;99.90;;;;;;5092372;28;20199;-62
2020/12/19 22:41:51;;;;;;;18.67;12.90;;;3.40;99.90;;;;;;5091837;28;20204;-62
2020/12/19 22:44:16;;;;;;;15.50;10.37;;;3.40;99.90;;;;;;5092079;28;20172;-62
2020/12/19 22:46:42;;;;;;;18.93;12.90;;;3.40;99.90;;;;;;5098323;28;20196;-63
2020/12/19 22:49:08;;;;;;;19.17;11.77;;;3.40;99.90;;;;;;5100734;28;20176;-63
2020/12/19 22:51:33;;;;;;;17.67;12.50;;;3.30;99.90;;;;;;5086795;28;20208;-62
2020/12/19 22:54:00;;;;;;;16.67;11.67;;;3.30;99.90;;;;;;5091680;28;20184;-62
2020/12/19 22:56:25;;;;;;;18.47;12.73;;;3.30;99.90;;;;;;5090586;28;20668;-62
2020/12/19 22:58:51;;;;;;;18.73;12.77;;;3.30;99.90;;;;;;5090984;28;20186;-62
2020/12/19 23:01:18;;;;;;;19.90;12.17;;;3.40;99.90;;;;;;5089923;28;20254;-61
2020/12/19 23:03:43;;;;;;;15.17;10.37;;;3.40;99.90;;;;;;5089675;28;20184;-62
2020/12/19 23:06:09;;;;;;;17.40;12.43;;;3.40;99.90;;;;;;5090391;28;20630;-63
2020/12/19 23:08:35;;;;;;;15.13;11.33;;;3.40;99.90;;;;;;5092049;28;20180;-61
2020/12/19 23:11:02;;;;;;;16.40;11.23;;;3.40;99.90;;;;;;5090684;28;20204;-63
2020/12/19 23:13:28;;;;;;;18.77;12.83;;;3.40;99.90;;;;;;5091206;28;20177;-61
2020/12/19 23:15:53;;;;;;;15.67;11.30;;;3.50;99.90;;;;;;5089276;28;20184;-61
2020/12/19 23:18:19;;;;;;;18.33;12.33;;;3.50;99.90;;;;;;5088076;28;20181;-61
2020/12/19 23:20:44;;;;;;;16.50;12.00;;;3.50;99.90;;;;;;5090024;28;20192;-61
2020/12/19 23:23:10;;;;;;;15.67;12.13;;;3.50;99.90;;;;;;5089808;28;20654;-62
2020/12/19 23:25:35;;;;;;;19.50;11.77;;;3.50;99.90;;;;;;5088009;28;20188;-62
2020/12/19 23:28:01;;;;;;;17.17;11.60;;;3.50;99.90;;;;;;5088902;28;20212;-63
2020/12/19 23:30:26;;;;;;;17.00;12.63;;;3.50;99.90;;;;;;5089316;28;20229;-60
2020/12/19 23:32:52;;;;;;;18.70;12.73;;;3.50;99.90;;;;;;5090275;28;20173;-63
2020/12/19 23:35:17;;;;;;;20.40;13.33;;;3.50;99.90;;;;;;5090649;28;20168;-61
2020/12/19 23:37:43;;;;;;;17.33;11.80;;;3.50;99.90;;;;;;5088793;28;20180;-62
2020/12/19 23:40:10;;;;;;;16.30;11.17;;;3.50;99.90;;;;;;5090159;28;20186;-62
2020/12/19 23:42:36;;;;;;;15.03;11.23;;;3.50;99.90;;;;;;5089783;28;20208;-62
2020/12/19 23:45:03;;;;;;;19.13;12.33;;;3.50;99.90;;;;;;5089633;28;20252;-61
2020/12/19 23:47:28;;;;;;;18.80;14.10;;;3.50;99.90;;;;;;5090501;28;20253;-61
2020/12/19 23:49:54;;;;;;;20.30;12.57;;;3.60;99.90;;;;;;5090339;28;20629;-62
2020/12/19 23:52:19;;;;;;;16.90;11.83;;;3.60;99.90;;;;;;5089779;28;20199;-61
2020/12/19 23:54:45;;;;;;;15.80;11.93;;;3.60;99.90;;;;;;5091418;28;20175;-61
2020/12/19 23:57:10;;;;;;;17.00;12.63;;;3.50;99.90;;;;;;5087656;28;20981;-62
2020/12/19 23:59:36;;;;;;;16.03;12.23;;;3.50;99.90;;;;;;5089324;28;20168;-61
